Etusivu
METAR-TAF:

METAR-TAF

Lentoasemat :

Olivia Regional Airport

Olivia, Minnesota, Yhdysvallat

Leveyspiiri: 44-46-43N, Pituuspiiri: 095-01-58W, korkeus merenpinnasta: 328 m

Tämänhetkinen sää

Tämä raportti tehtiin 24 minuuttia sitten, kello 15.59 UTC
Tuuli 11 kn etelästä/kaakosta
Lämpötila 1°C
Kosteus 100%
Ilmanpaine 1005 hPa
Näkyvyys: 11.3 km
Pilvistä 400 ft:n korkeudessa

METAR: KOVL 181559Z AUTO 15011KT 7SM OVC004 01/01 A2967 RMK AO2

Aika: 10:23 (16:23 UTC)


TAF: puuttuu

Säähavainnot ja -ennusteet yli 4000 lentoasemalta (METAR- ja TAF-raportit).

Käytössä olevat sääasemat on merkitty karttaan keltaisilla ja punaisilla pisteillä.

Aseta hiiri pisteen päälle nähdäksesi sääaseman nimen.

Klikkaa sitten nähdäksesi säähavainnot ja -ennusteet.

Kartan vaihtaminen: klikkaa mustalla rastilla varustettuja vihreitä pisteitä, niin voit zoomata sisään; viivalla varustettua vihreää pistettä, niin voit zoomata ulos tai vihreitä nuolia, niin pääset viereisille kartoille.


METAR-TAF: